Terminal Aerodrome Forecast
Issued by NWS

Home | Current Version | Previous Version | Text Only | Print | Product List | Glossary On
Versions: 1 2 3 4 5 6 7 8 9 10 11 12 13 14 15 16 17 18 19 20 21 22 23 24 25 26 27 28 29 30 31 32 33 34 35 36 37 38 39 40 41 42 43 44 45 46 47 48 49 50
000
FTUS44 KHGX 201502 AAA
TAFIAH
TAF AMD
KIAH 201502Z 2015/2118 17009KT P6SM BKN025 BKN250
     FM201700 16011KT P6SM VCTS SCT040CB
     FM202300 14013KT P6SM FEW040 BKN100
     FM210300 16005KT P6SM SCT250
     FM211400 18008KT P6SM FEW015 SCT035=

USA.gov is the U.S. government's official web portal to all federal, state and local government web resources and services.